sensor_id;sensor_type;location;lat;lon;timestamp;pressure;altitude;pressure_sealevel;temperature;humidity
33286;BME280;19656;50.096;20.014;2023-05-12T00:03:19;99227.27;;;13.89;45.17
33286;BME280;19656;50.096;20.014;2023-05-12T00:08:22;99222.75;;;13.85;45.14
33286;BME280;19656;50.096;20.014;2023-05-12T00:13:25;99229.52;;;13.83;45.23
33286;BME280;19656;50.096;20.014;2023-05-12T00:18:30;99226.83;;;13.78;45.49
33286;BME280;19656;50.096;20.014;2023-05-12T00:23:35;99223.61;;;13.73;45.61
33286;BME280;19656;50.096;20.014;2023-05-12T00:28:38;99223.27;;;13.68;45.46
33286;BME280;19656;50.096;20.014;2023-05-12T00:33:41;99223.13;;;13.63;45.49
33286;BME280;19656;50.096;20.014;2023-05-12T00:38:44;99225.90;;;13.56;45.50
33286;BME280;19656;50.096;20.014;2023-05-12T00:43:48;99231.66;;;13.53;45.69
33286;BME280;19656;50.096;20.014;2023-05-12T00:48:51;99230.38;;;13.48;45.65
33286;BME280;19656;50.096;20.014;2023-05-12T00:53:54;99233.19;;;13.39;46.10
33286;BME280;19656;50.096;20.014;2023-05-12T00:58:59;99232.69;;;13.34;46.14
33286;BME280;19656;50.096;20.014;2023-05-12T01:04:03;99230.81;;;13.24;46.70
33286;BME280;19656;50.096;20.014;2023-05-12T01:09:06;99235.69;;;13.21;46.49
33286;BME280;19656;50.096;20.014;2023-05-12T01:14:10;99236.66;;;13.15;46.80
33286;BME280;19656;50.096;20.014;2023-05-12T01:24:37;99237.48;;;13.08;46.99
33286;BME280;19656;50.096;20.014;2023-05-12T01:29:45;99239.64;;;13.07;46.93
33286;BME280;19656;50.096;20.014;2023-05-12T01:34:51;99243.80;;;13.04;47.09
33286;BME280;19656;50.096;20.014;2023-05-12T01:39:55;99249.89;;;12.98;47.01
33286;BME280;19656;50.096;20.014;2023-05-12T01:44:58;99255.42;;;12.95;47.09
33286;BME280;19656;50.096;20.014;2023-05-12T01:50:02;99254.02;;;12.92;47.25
33286;BME280;19656;50.096;20.014;2023-05-12T01:55:05;99253.52;;;12.89;47.37
33286;BME280;19656;50.096;20.014;2023-05-12T02:00:29;99249.85;;;12.83;47.67
33286;BME280;19656;50.096;20.014;2023-05-12T02:05:32;99249.58;;;12.76;47.76
33286;BME280;19656;50.096;20.014;2023-05-12T02:10:36;99251.48;;;12.75;47.94
33286;BME280;19656;50.096;20.014;2023-05-12T02:15:39;99246.05;;;12.73;48.05
33286;BME280;19656;50.096;20.014;2023-05-12T02:20:42;99248.39;;;12.68;48.22
33286;BME280;19656;50.096;20.014;2023-05-12T02:25:45;99251.31;;;12.61;48.41
33286;BME280;19656;50.096;20.014;2023-05-12T02:30:49;99256.21;;;12.54;48.52
33286;BME280;19656;50.096;20.014;2023-05-12T02:35:53;99255.94;;;12.48;48.75
33286;BME280;19656;50.096;20.014;2023-05-12T02:40:56;99262.15;;;12.43;48.96
33286;BME280;19656;50.096;20.014;2023-05-12T02:46:00;99263.33;;;12.41;49.32
33286;BME280;19656;50.096;20.014;2023-05-12T02:51:04;99263.08;;;12.37;49.31
33286;BME280;19656;50.096;20.014;2023-05-12T02:56:07;99257.50;;;12.33;49.97
33286;BME280;19656;50.096;20.014;2023-05-12T03:01:10;99259.73;;;12.28;49.71
33286;BME280;19656;50.096;20.014;2023-05-12T03:06:14;99256.48;;;12.24;49.64
33286;BME280;19656;50.096;20.014;2023-05-12T03:11:17;99252.79;;;12.18;49.72
33286;BME280;19656;50.096;20.014;2023-05-12T03:16:21;99250.96;;;12.10;49.93
33286;BME280;19656;50.096;20.014;2023-05-12T03:21:24;99249.80;;;12.06;50.35
33286;BME280;19656;50.096;20.014;2023-05-12T03:26:27;99252.30;;;12.03;50.47
33286;BME280;19656;50.096;20.014;2023-05-12T03:31:30;99250.67;;;12.01;50.62
33286;BME280;19656;50.096;20.014;2023-05-12T03:36:33;99253.26;;;11.97;50.68
33286;BME280;19656;50.096;20.014;2023-05-12T03:41:37;99254.23;;;11.93;50.93
33286;BME280;19656;50.096;20.014;2023-05-12T03:46:40;99257.92;;;11.96;51.11
33286;BME280;19656;50.096;20.014;2023-05-12T03:51:44;99262.53;;;11.99;51.37
33286;BME280;19656;50.096;20.014;2023-05-12T03:56:47;99262.76;;;12.01;51.22
33286;BME280;19656;50.096;20.014;2023-05-12T04:01:51;99268.20;;;12.07;51.70
33286;BME280;19656;50.096;20.014;2023-05-12T04:06:55;99272.94;;;12.14;51.22
33286;BME280;19656;50.096;20.014;2023-05-12T04:11:59;99273.03;;;12.15;51.24
33286;BME280;19656;50.096;20.014;2023-05-12T04:17:03;99276.42;;;12.13;51.35
33286;BME280;19656;50.096;20.014;2023-05-12T04:22:06;99279.58;;;12.13;51.52
33286;BME280;19656;50.096;20.014;2023-05-12T04:27:09;99284.41;;;12.18;51.52
33286;BME280;19656;50.096;20.014;2023-05-12T04:32:13;99288.52;;;12.21;51.61
33286;BME280;19656;50.096;20.014;2023-05-12T04:37:16;99289.58;;;12.21;51.56
33286;BME280;19656;50.096;20.014;2023-05-12T04:42:19;99291.66;;;12.21;51.63
33286;BME280;19656;50.096;20.014;2023-05-12T04:47:23;99289.02;;;12.18;51.70
33286;BME280;19656;50.096;20.014;2023-05-12T04:52:26;99292.08;;;12.18;51.94
33286;BME280;19656;50.096;20.014;2023-05-12T04:57:29;99295.02;;;12.22;52.29
33286;BME280;19656;50.096;20.014;2023-05-12T05:02:33;99293.49;;;12.29;52.32
33286;BME280;19656;50.096;20.014;2023-05-12T05:07:36;99297.16;;;12.33;52.32
33286;BME280;19656;50.096;20.014;2023-05-12T05:12:39;99298.09;;;12.38;52.41
33286;BME280;19656;50.096;20.014;2023-05-12T05:17:42;99306.37;;;12.47;52.52
33286;BME280;19656;50.096;20.014;2023-05-12T05:22:51;99308.94;;;12.62;52.34
33286;BME280;19656;50.096;20.014;2023-05-12T05:27:54;99306.39;;;12.71;52.13
33286;BME280;19656;50.096;20.014;2023-05-12T05:32:57;99305.96;;;12.77;51.99
33286;BME280;19656;50.096;20.014;2023-05-12T05:38:01;99312.60;;;12.98;51.90
33286;BME280;19656;50.096;20.014;2023-05-12T05:43:06;99320.33;;;13.21;51.86
33286;BME280;19656;50.096;20.014;2023-05-12T05:48:10;99321.95;;;13.36;51.64
33286;BME280;19656;50.096;20.014;2023-05-12T05:53:13;99324.00;;;13.47;51.51
33286;BME280;19656;50.096;20.014;2023-05-12T05:58:17;99328.42;;;13.51;51.09
33286;BME280;19656;50.096;20.014;2023-05-12T06:03:22;99327.81;;;13.60;50.99
33286;BME280;19656;50.096;20.014;2023-05-12T06:08:25;99327.38;;;13.73;51.03
33286;BME280;19656;50.096;20.014;2023-05-12T06:13:29;99327.93;;;13.83;50.49
33286;BME280;19656;50.096;20.014;2023-05-12T06:18:32;99329.61;;;13.97;50.73
33286;BME280;19656;50.096;20.014;2023-05-12T06:23:39;99332.80;;;14.12;51.14
33286;BME280;19656;50.096;20.014;2023-05-12T06:28:43;99336.15;;;14.35;50.09
33286;BME280;19656;50.096;20.014;2023-05-12T06:33:46;99331.60;;;14.51;49.64
33286;BME280;19656;50.096;20.014;2023-05-12T06:38:49;99334.40;;;14.62;49.58
33286;BME280;19656;50.096;20.014;2023-05-12T06:43:52;99332.30;;;14.71;49.73
33286;BME280;19656;50.096;20.014;2023-05-12T06:49:02;99330.66;;;14.76;49.38
33286;BME280;19656;50.096;20.014;2023-05-12T06:54:05;99335.64;;;14.77;49.00
33286;BME280;19656;50.096;20.014;2023-05-12T06:59:08;99333.52;;;14.79;49.04
33286;BME280;19656;50.096;20.014;2023-05-12T07:04:11;99331.56;;;14.95;49.27
33286;BME280;19656;50.096;20.014;2023-05-12T07:09:14;99334.16;;;15.13;49.45
33286;BME280;19656;50.096;20.014;2023-05-12T07:14:20;99330.69;;;15.28;49.30
33286;BME280;19656;50.096;20.014;2023-05-12T07:19:23;99333.13;;;15.43;48.79
33286;BME280;19656;50.096;20.014;2023-05-12T07:24:26;99334.77;;;15.54;48.71
33286;BME280;19656;50.096;20.014;2023-05-12T07:29:29;99335.50;;;15.67;48.74
33286;BME280;19656;50.096;20.014;2023-05-12T07:34:33;99328.11;;;15.84;48.82
33286;BME280;19656;50.096;20.014;2023-05-12T07:39:36;99332.55;;;15.98;48.09
33286;BME280;19656;50.096;20.014;2023-05-12T07:44:39;99336.70;;;16.16;48.78
33286;BME280;19656;50.096;20.014;2023-05-12T07:49:43;99328.20;;;16.32;47.15
33286;BME280;19656;50.096;20.014;2023-05-12T07:54:45;99327.17;;;16.41;47.03
33286;BME280;19656;50.096;20.014;2023-05-12T07:59:49;99328.36;;;16.52;46.97
33286;BME280;19656;50.096;20.014;2023-05-12T08:04:51;99317.94;;;16.68;46.81
33286;BME280;19656;50.096;20.014;2023-05-12T08:09:54;99321.35;;;16.87;45.87
33286;BME280;19656;50.096;20.014;2023-05-12T08:14:58;99317.20;;;17.07;44.93
33286;BME280;19656;50.096;20.014;2023-05-12T08:20:01;99323.83;;;17.24;45.43
33286;BME280;19656;50.096;20.014;2023-05-12T08:25:08;99321.09;;;17.35;44.88
33286;BME280;19656;50.096;20.014;2023-05-12T08:30:14;99319.40;;;17.44;45.74
33286;BME280;19656;50.096;20.014;2023-05-12T08:35:18;99322.41;;;17.74;45.80
33286;BME280;19656;50.096;20.014;2023-05-12T08:40:23;99318.00;;;18.00;45.83
33286;BME280;19656;50.096;20.014;2023-05-12T08:45:28;99319.75;;;18.38;45.87
33286;BME280;19656;50.096;20.014;2023-05-12T08:50:31;99321.62;;;18.56;42.36
33286;BME280;19656;50.096;20.014;2023-05-12T08:55:40;99322.05;;;18.59;41.61
33286;BME280;19656;50.096;20.014;2023-05-12T09:01:03;99317.70;;;18.67;42.60
33286;BME280;19656;50.096;20.014;2023-05-12T09:06:07;99314.68;;;18.86;42.24
33286;BME280;19656;50.096;20.014;2023-05-12T09:11:13;99308.15;;;19.05;43.34
33286;BME280;19656;50.096;20.014;2023-05-12T09:16:19;99311.69;;;19.25;42.83
33286;BME280;19656;50.096;20.014;2023-05-12T09:21:24;99307.32;;;19.43;42.28
33286;BME280;19656;50.096;20.014;2023-05-12T09:26:28;99308.10;;;19.57;41.12
33286;BME280;19656;50.096;20.014;2023-05-12T09:31:31;99307.89;;;19.69;39.95
33286;BME280;19656;50.096;20.014;2023-05-12T09:36:34;99301.08;;;19.84;39.84
33286;BME280;19656;50.096;20.014;2023-05-12T09:41:41;99303.97;;;19.97;37.66
33286;BME280;19656;50.096;20.014;2023-05-12T09:46:45;99298.80;;;20.22;37.46
33286;BME280;19656;50.096;20.014;2023-05-12T09:51:56;99294.39;;;20.41;36.56
33286;BME280;19656;50.096;20.014;2023-05-12T09:57:03;99290.48;;;20.46;36.73
33286;BME280;19656;50.096;20.014;2023-05-12T10:02:07;99295.77;;;20.53;36.98
33286;BME280;19656;50.096;20.014;2023-05-12T10:07:12;99292.01;;;20.53;35.09
33286;BME280;19656;50.096;20.014;2023-05-12T10:12:16;99291.10;;;20.45;35.09
33286;BME280;19656;50.096;20.014;2023-05-12T10:17:19;99295.14;;;20.44;34.55
33286;BME280;19656;50.096;20.014;2023-05-12T10:22:23;99289.20;;;20.63;34.57
33286;BME280;19656;50.096;20.014;2023-05-12T10:27:28;99288.25;;;20.95;34.94
33286;BME280;19656;50.096;20.014;2023-05-12T10:32:32;99284.49;;;20.85;33.73
33286;BME280;19656;50.096;20.014;2023-05-12T10:37:36;99284.80;;;20.89;34.48
33286;BME280;19656;50.096;20.014;2023-05-12T10:42:41;99279.02;;;21.17;33.75
33286;BME280;19656;50.096;20.014;2023-05-12T10:47:45;99278.98;;;21.35;33.36
33286;BME280;19656;50.096;20.014;2023-05-12T10:52:53;99276.75;;;21.54;32.96
33286;BME280;19656;50.096;20.014;2023-05-12T10:58:08;99272.63;;;21.41;33.09
33286;BME280;19656;50.096;20.014;2023-05-12T11:03:13;99276.14;;;21.38;33.39
33286;BME280;19656;50.096;20.014;2023-05-12T11:08:20;99279.09;;;21.17;33.97
33286;BME280;19656;50.096;20.014;2023-05-12T11:13:25;99280.72;;;21.00;34.46
33286;BME280;19656;50.096;20.014;2023-05-12T11:18:28;99281.07;;;20.72;34.65
33286;BME280;19656;50.096;20.014;2023-05-12T11:23:31;99284.52;;;20.57;34.44
33286;BME280;19656;50.096;20.014;2023-05-12T11:28:40;99286.31;;;20.84;34.24
33286;BME280;19656;50.096;20.014;2023-05-12T11:33:44;99290.66;;;21.29;33.84
33286;BME280;19656;50.096;20.014;2023-05-12T11:38:48;99290.29;;;21.25;33.58
33286;BME280;19656;50.096;20.014;2023-05-12T11:43:52;99292.84;;;21.34;33.35
33286;BME280;19656;50.096;20.014;2023-05-12T11:48:58;99286.95;;;21.30;33.68
33286;BME280;19656;50.096;20.014;2023-05-12T11:54:02;99290.91;;;21.14;33.68
33286;BME280;19656;50.096;20.014;2023-05-12T11:59:05;99286.98;;;21.06;33.63
33286;BME280;19656;50.096;20.014;2023-05-12T12:04:08;99288.55;;;21.16;33.63
33286;BME280;19656;50.096;20.014;2023-05-12T12:09:11;99289.59;;;21.18;32.38
33286;BME280;19656;50.096;20.014;2023-05-12T12:14:15;99289.45;;;21.10;32.43
33286;BME280;19656;50.096;20.014;2023-05-12T12:19:18;99280.55;;;21.53;33.66
33286;BME280;19656;50.096;20.014;2023-05-12T12:24:22;99280.69;;;21.88;32.41
33286;BME280;19656;50.096;20.014;2023-05-12T12:29:25;99279.82;;;21.62;31.67
33286;BME280;19656;50.096;20.014;2023-05-12T12:34:30;99282.23;;;21.33;32.53
33286;BME280;19656;50.096;20.014;2023-05-12T12:39:33;99278.16;;;21.53;32.69
33286;BME280;19656;50.096;20.014;2023-05-12T12:44:36;99276.92;;;22.12;31.07
33286;BME280;19656;50.096;20.014;2023-05-12T12:49:39;99280.59;;;22.44;31.54
33286;BME280;19656;50.096;20.014;2023-05-12T12:54:42;99278.17;;;22.41;31.76
33286;BME280;19656;50.096;20.014;2023-05-12T12:59:45;99264.45;;;22.97;31.02
33286;BME280;19656;50.096;20.014;2023-05-12T13:04:48;99263.95;;;23.47;30.48
33286;BME280;19656;50.096;20.014;2023-05-12T13:09:51;99263.84;;;23.26;30.52
33286;BME280;19656;50.096;20.014;2023-05-12T13:14:54;99262.75;;;22.73;30.81
33286;BME280;19656;50.096;20.014;2023-05-12T13:19:57;99265.16;;;22.26;31.39
33286;BME280;19656;50.096;20.014;2023-05-12T13:25:01;99266.58;;;22.21;31.71
33286;BME280;19656;50.096;20.014;2023-05-12T13:30:06;99262.61;;;22.39;31.10
33286;BME280;19656;50.096;20.014;2023-05-12T13:35:10;99264.91;;;22.37;30.74
33286;BME280;19656;50.096;20.014;2023-05-12T13:40:13;99259.56;;;22.28;30.54
33286;BME280;19656;50.096;20.014;2023-05-12T13:45:16;99261.23;;;22.54;31.03
33286;BME280;19656;50.096;20.014;2023-05-12T13:50:21;99266.39;;;22.33;30.59
33286;BME280;19656;50.096;20.014;2023-05-12T13:55:24;99266.20;;;21.87;31.23
33286;BME280;19656;50.096;20.014;2023-05-12T14:00:27;99259.22;;;21.66;32.63
33286;BME280;19656;50.096;20.014;2023-05-12T14:05:31;99257.47;;;22.09;32.41
33286;BME280;19656;50.096;20.014;2023-05-12T14:10:34;99254.75;;;22.62;31.50
33286;BME280;19656;50.096;20.014;2023-05-12T14:15:38;99243.59;;;22.98;29.73
33286;BME280;19656;50.096;20.014;2023-05-12T14:20:51;99248.69;;;23.11;29.08
33286;BME280;19656;50.096;20.014;2023-05-12T14:25:54;99245.97;;;23.01;28.88
33286;BME280;19656;50.096;20.014;2023-05-12T14:30:57;99244.21;;;22.85;28.65
33286;BME280;19656;50.096;20.014;2023-05-12T14:36:00;99241.79;;;22.66;29.24
33286;BME280;19656;50.096;20.014;2023-05-12T14:41:09;99249.86;;;22.53;28.83
33286;BME280;19656;50.096;20.014;2023-05-12T14:46:13;99249.33;;;22.32;29.68
33286;BME280;19656;50.096;20.014;2023-05-12T14:51:17;99253.33;;;22.20;29.62
33286;BME280;19656;50.096;20.014;2023-05-12T14:56:20;99246.46;;;22.06;29.23
33286;BME280;19656;50.096;20.014;2023-05-12T15:01:22;99253.52;;;21.82;29.20
33286;BME280;19656;50.096;20.014;2023-05-12T15:06:26;99257.95;;;21.73;28.94
33286;BME280;19656;50.096;20.014;2023-05-12T15:11:29;99251.24;;;21.57;29.26
33286;BME280;19656;50.096;20.014;2023-05-12T15:16:32;99252.53;;;21.40;29.49
33286;BME280;19656;50.096;20.014;2023-05-12T15:21:36;99254.35;;;21.29;29.76
33286;BME280;19656;50.096;20.014;2023-05-12T15:26:39;99253.95;;;21.22;29.43
33286;BME280;19656;50.096;20.014;2023-05-12T15:31:42;99255.98;;;21.13;29.41
33286;BME280;19656;50.096;20.014;2023-05-12T15:36:45;99257.85;;;21.03;29.51
33286;BME280;19656;50.096;20.014;2023-05-12T15:41:50;99255.22;;;20.97;30.17
33286;BME280;19656;50.096;20.014;2023-05-12T15:46:53;99258.15;;;20.92;30.44
33286;BME280;19656;50.096;20.014;2023-05-12T15:51:57;99259.65;;;20.82;29.79
33286;BME280;19656;50.096;20.014;2023-05-12T15:57:01;99263.10;;;20.71;29.84
33286;BME280;19656;50.096;20.014;2023-05-12T16:02:03;99262.69;;;20.65;30.40
33286;BME280;19656;50.096;20.014;2023-05-12T16:07:07;99255.52;;;20.57;30.53
33286;BME280;19656;50.096;20.014;2023-05-12T16:12:10;99262.58;;;20.46;31.09
33286;BME280;19656;50.096;20.014;2023-05-12T16:17:13;99261.83;;;20.33;30.44
33286;BME280;19656;50.096;20.014;2023-05-12T16:22:16;99266.48;;;20.24;30.44
33286;BME280;19656;50.096;20.014;2023-05-12T16:27:19;99268.13;;;20.17;31.15
33286;BME280;19656;50.096;20.014;2023-05-12T16:32:22;99269.15;;;20.16;31.40
33286;BME280;19656;50.096;20.014;2023-05-12T16:37:25;99277.29;;;20.12;31.76
33286;BME280;19656;50.096;20.014;2023-05-12T16:42:29;99281.64;;;20.11;32.04
33286;BME280;19656;50.096;20.014;2023-05-12T16:47:32;99286.67;;;20.09;32.41
33286;BME280;19656;50.096;20.014;2023-05-12T16:52:35;99287.92;;;20.04;32.60
33286;BME280;19656;50.096;20.014;2023-05-12T16:57:38;99290.34;;;20.00;32.72
33286;BME280;19656;50.096;20.014;2023-05-12T17:02:44;99291.39;;;19.94;32.68
33286;BME280;19656;50.096;20.014;2023-05-12T17:07:48;99298.89;;;19.92;32.73
33286;BME280;19656;50.096;20.014;2023-05-12T17:12:51;99297.85;;;19.87;32.49
33286;BME280;19656;50.096;20.014;2023-05-12T17:17:54;99301.80;;;19.83;32.57
33286;BME280;19656;50.096;20.014;2023-05-12T17:22:58;99300.53;;;19.82;32.36
33286;BME280;19656;50.096;20.014;2023-05-12T17:28:02;99303.29;;;19.76;31.98
33286;BME280;19656;50.096;20.014;2023-05-12T17:33:06;99306.27;;;19.69;32.70
33286;BME280;19656;50.096;20.014;2023-05-12T17:38:10;99316.71;;;19.63;33.16
33286;BME280;19656;50.096;20.014;2023-05-12T17:43:13;99320.27;;;19.52;31.74
33286;BME280;19656;50.096;20.014;2023-05-12T17:48:18;99321.23;;;19.17;31.63
33286;BME280;19656;50.096;20.014;2023-05-12T17:53:21;99321.45;;;18.93;32.07
33286;BME280;19656;50.096;20.014;2023-05-12T17:58:24;99331.18;;;18.77;32.43
33286;BME280;19656;50.096;20.014;2023-05-12T18:03:27;99333.34;;;18.59;32.77
33286;BME280;19656;50.096;20.014;2023-05-12T18:08:30;99337.59;;;18.44;33.22
33286;BME280;19656;50.096;20.014;2023-05-12T18:13:33;99341.86;;;18.30;33.48
33286;BME280;19656;50.096;20.014;2023-05-12T18:18:36;99342.41;;;18.16;33.87
33286;BME280;19656;50.096;20.014;2023-05-12T18:23:40;99347.52;;;18.07;34.09
33286;BME280;19656;50.096;20.014;2023-05-12T18:28:43;99354.66;;;17.97;34.26
33286;BME280;19656;50.096;20.014;2023-05-12T18:33:47;99354.30;;;17.91;35.09
33286;BME280;19656;50.096;20.014;2023-05-12T18:38:50;99360.47;;;17.90;36.30
33286;BME280;19656;50.096;20.014;2023-05-12T18:43:53;99364.88;;;17.70;36.09
33286;BME280;19656;50.096;20.014;2023-05-12T18:48:56;99367.77;;;17.54;36.31
33286;BME280;19656;50.096;20.014;2023-05-12T18:53:59;99371.70;;;17.41;36.71
33286;BME280;19656;50.096;20.014;2023-05-12T18:59:02;99374.37;;;17.27;36.64
33286;BME280;19656;50.096;20.014;2023-05-12T19:04:06;99379.17;;;17.16;37.13
33286;BME280;19656;50.096;20.014;2023-05-12T19:09:09;99374.52;;;17.05;37.29
33286;BME280;19656;50.096;20.014;2023-05-12T19:14:12;99376.60;;;16.95;37.27
33286;BME280;19656;50.096;20.014;2023-05-12T19:19:17;99379.86;;;16.93;37.10
33286;BME280;19656;50.096;20.014;2023-05-12T19:24:23;99384.45;;;16.88;37.74
33286;BME280;19656;50.096;20.014;2023-05-12T19:29:27;99386.60;;;16.87;37.93
33286;BME280;19656;50.096;20.014;2023-05-12T19:34:30;99391.38;;;16.88;37.44
33286;BME280;19656;50.096;20.014;2023-05-12T19:39:33;99394.02;;;16.80;37.33
33286;BME280;19656;50.096;20.014;2023-05-12T19:44:36;99395.50;;;16.77;37.12
33286;BME280;19656;50.096;20.014;2023-05-12T19:49:39;99398.65;;;16.76;37.11
33286;BME280;19656;50.096;20.014;2023-05-12T19:54:43;99401.88;;;16.75;37.12
33286;BME280;19656;50.096;20.014;2023-05-12T19:59:46;99398.52;;;16.70;36.96
33286;BME280;19656;50.096;20.014;2023-05-12T20:04:49;99400.70;;;16.70;36.98
33286;BME280;19656;50.096;20.014;2023-05-12T20:09:52;99405.43;;;16.67;37.09
33286;BME280;19656;50.096;20.014;2023-05-12T20:14:56;99403.55;;;16.64;36.88
33286;BME280;19656;50.096;20.014;2023-05-12T20:19:59;99409.02;;;16.62;36.69
33286;BME280;19656;50.096;20.014;2023-05-12T20:25:04;99406.91;;;16.57;36.60
33286;BME280;19656;50.096;20.014;2023-05-12T20:30:08;99405.94;;;16.56;36.67
33286;BME280;19656;50.096;20.014;2023-05-12T20:35:11;99408.89;;;16.53;36.75
33286;BME280;19656;50.096;20.014;2023-05-12T20:40:14;99407.13;;;16.50;36.66
33286;BME280;19656;50.096;20.014;2023-05-12T20:45:18;99401.85;;;16.47;36.85
33286;BME280;19656;50.096;20.014;2023-05-12T20:50:22;99405.66;;;16.44;36.83
33286;BME280;19656;50.096;20.014;2023-05-12T20:55:25;99404.02;;;16.40;37.02
33286;BME280;19656;50.096;20.014;2023-05-12T21:00:28;99405.89;;;16.35;37.23
33286;BME280;19656;50.096;20.014;2023-05-12T21:05:31;99407.98;;;16.24;37.25
33286;BME280;19656;50.096;20.014;2023-05-12T21:10:34;99409.41;;;16.17;37.57
33286;BME280;19656;50.096;20.014;2023-05-12T21:15:41;99413.03;;;16.10;37.69
33286;BME280;19656;50.096;20.014;2023-05-12T21:20:44;99415.30;;;16.04;37.99
33286;BME280;19656;50.096;20.014;2023-05-12T21:25:47;99422.23;;;15.96;38.31
33286;BME280;19656;50.096;20.014;2023-05-12T21:30:50;99421.91;;;15.88;38.89
33286;BME280;19656;50.096;20.014;2023-05-12T21:35:53;99421.17;;;15.82;38.86
33286;BME280;19656;50.096;20.014;2023-05-12T21:40:57;99428.42;;;15.76;38.93
33286;BME280;19656;50.096;20.014;2023-05-12T21:46:02;99435.14;;;15.72;38.78
33286;BME280;19656;50.096;20.014;2023-05-12T21:51:05;99440.21;;;15.67;38.89
33286;BME280;19656;50.096;20.014;2023-05-12T21:56:08;99439.59;;;15.60;39.46
33286;BME280;19656;50.096;20.014;2023-05-12T22:01:11;99444.20;;;15.56;39.99
33286;BME280;19656;50.096;20.014;2023-05-12T22:06:15;99440.45;;;15.51;40.17
33286;BME280;19656;50.096;20.014;2023-05-12T22:11:18;99440.79;;;15.47;40.68
33286;BME280;19656;50.096;20.014;2023-05-12T22:16:22;99440.77;;;15.40;41.20
33286;BME280;19656;50.096;20.014;2023-05-12T22:21:36;99442.91;;;15.35;41.14
33286;BME280;19656;50.096;20.014;2023-05-12T22:26:39;99445.38;;;15.31;41.37
33286;BME280;19656;50.096;20.014;2023-05-12T22:31:43;99442.72;;;15.26;41.69
33286;BME280;19656;50.096;20.014;2023-05-12T22:36:46;99438.92;;;15.20;41.96
33286;BME280;19656;50.096;20.014;2023-05-12T22:41:49;99438.71;;;15.15;42.13
33286;BME280;19656;50.096;20.014;2023-05-12T22:46:52;99443.48;;;15.06;42.58
33286;BME280;19656;50.096;20.014;2023-05-12T22:51:55;99445.32;;;14.99;42.81
33286;BME280;19656;50.096;20.014;2023-05-12T22:56:58;99447.58;;;14.92;42.74
33286;BME280;19656;50.096;20.014;2023-05-12T23:02:02;99446.77;;;14.86;42.93
33286;BME280;19656;50.096;20.014;2023-05-12T23:07:05;99448.06;;;14.80;43.14
33286;BME280;19656;50.096;20.014;2023-05-12T23:12:10;99446.73;;;14.77;43.30
33286;BME280;19656;50.096;20.014;2023-05-12T23:17:14;99446.89;;;14.70;43.29
33286;BME280;19656;50.096;20.014;2023-05-12T23:22:16;99446.77;;;14.64;43.41
33286;BME280;19656;50.096;20.014;2023-05-12T23:27:20;99445.16;;;14.56;43.50
33286;BME280;19656;50.096;20.014;2023-05-12T23:32:23;99442.70;;;14.49;43.87
33286;BME280;19656;50.096;20.014;2023-05-12T23:37:26;99444.15;;;14.38;44.47
33286;BME280;19656;50.096;20.014;2023-05-12T23:42:29;99442.50;;;14.28;44.72
33286;BME280;19656;50.096;20.014;2023-05-12T23:47:32;99438.30;;;14.22;44.54
33286;BME280;19656;50.096;20.014;2023-05-12T23:52:35;99436.08;;;14.13;44.72
33286;BME280;19656;50.096;20.014;2023-05-12T23:57:38;99435.99;;;14.04;45.25
